GCEND EGKA-EGHP
Flight info
| Callsign | GCEND |
|---|---|
| Flight time | 0h 26m |
| Altitude | 2100 |
| Route | EGKA / WASHINGTON VRP / EGHP |
| Aircraft | C172/L-VGDW/C |
Departure
| Time | 2026-05-01 08:35 |
|---|---|
| Airport | Brighton City Airport (EGKA) |
Arrival
| Time | 2026-05-01 09:01 |
|---|---|
| Airport | Popham Airfield (EGHP) |
| Time | Latitude | Longitude | Altitude | Speed | Heading |
|---|---|---|---|---|---|
| 2026-05-01 08:24 | 50.83465 | -0.28828 | 9 ft | 0 kts | 255° |
| 2026-05-01 08:31 | 50.83458 | -0.28881 | 9 ft | 15 kts | 278° |
| 2026-05-01 08:31 | 50.83502 | -0.28875 | 9 ft | 19 kts | 63° |
| 2026-05-01 08:31 | 50.83596 | -0.28818 | 9 ft | 18 kts | 340° |
| 2026-05-01 08:31 | 50.83693 | -0.29003 | 9 ft | 26 kts | 305° |
| 2026-05-01 08:32 | 50.83806 | -0.29272 | 9 ft | 30 kts | 304° |
| 2026-05-01 08:32 | 50.83940 | -0.29327 | 9 ft | 11 kts | 351° |
| 2026-05-01 08:32 | 50.83941 | -0.29372 | 9 ft | 14 kts | 150° |
| 2026-05-01 08:32 | 50.83892 | -0.29386 | 9 ft | 8 kts | 190° |
| 2026-05-01 08:33 | 50.83859 | -0.29397 | 9 ft | 0 kts | 195° |
| 2026-05-01 08:33 | 50.83854 | -0.29400 | 9 ft | 5 kts | 207° |
| 2026-05-01 08:34 | 50.83823 | -0.29425 | 9 ft | 4 kts | 131° |
| 2026-05-01 08:34 | 50.83822 | -0.29423 | 9 ft | 0 kts | 122° |
| 2026-05-01 08:34 | 50.83738 | -0.29239 | 9 ft | 49 kts | 122° |
| 2026-05-01 08:35 | 50.83484 | -0.28703 | 147 ft | 64 kts | 131° |
| 2026-05-01 08:35 | 50.83180 | -0.28207 | 367 ft | 68 kts | 128° |
| 2026-05-01 08:35 | 50.82852 | -0.27605 | 558 ft | 76 kts | 115° |
| 2026-05-01 08:35 | 50.82871 | -0.26758 | 756 ft | 85 kts | 70° |
| 2026-05-01 08:36 | 50.83302 | -0.26090 | 947 ft | 95 kts | 28° |
| 2026-05-01 08:36 | 50.83971 | -0.25879 | 1136 ft | 101 kts | 6° |
| 2026-05-01 08:36 | 50.84685 | -0.25798 | 1320 ft | 104 kts | 5° |
| 2026-05-01 08:36 | 50.85400 | -0.25883 | 1505 ft | 106 kts | 334° |
| 2026-05-01 08:37 | 50.85913 | -0.26671 | 1699 ft | 103 kts | 297° |
| 2026-05-01 08:37 | 50.86236 | -0.27670 | 1880 ft | 103 kts | 289° |
| 2026-05-01 08:37 | 50.86581 | -0.28680 | 2036 ft | 107 kts | 294° |
| 2026-05-01 08:37 | 50.86969 | -0.29787 | 2002 ft | 119 kts | 295° |
| 2026-05-01 08:38 | 50.87209 | -0.30483 | 2001 ft | 123 kts | 295° |
| 2026-05-01 08:38 | 50.87625 | -0.31692 | 2002 ft | 126 kts | 295° |
| 2026-05-01 08:38 | 50.88029 | -0.32863 | 2142 ft | 118 kts | 294° |
| 2026-05-01 08:38 | 50.88422 | -0.34070 | 2074 ft | 129 kts | 289° |
| 2026-05-01 08:39 | 50.88804 | -0.35353 | 2066 ft | 128 kts | 296° |
| 2026-05-01 08:39 | 50.89275 | -0.36541 | 2073 ft | 128 kts | 298° |
| 2026-05-01 08:39 | 50.89753 | -0.37720 | 2080 ft | 127 kts | 298° |
| 2026-05-01 08:39 | 50.90235 | -0.38902 | 2075 ft | 126 kts | 298° |
| 2026-05-01 08:40 | 50.91188 | -0.41238 | 2084 ft | 127 kts | 298° |
| 2026-05-01 08:40 | 50.91673 | -0.42428 | 2086 ft | 127 kts | 298° |
| 2026-05-01 08:40 | 50.92152 | -0.43603 | 2083 ft | 127 kts | 298° |
| 2026-05-01 08:41 | 50.92632 | -0.44771 | 2083 ft | 127 kts | 298° |
| 2026-05-01 08:41 | 50.93114 | -0.45956 | 2085 ft | 128 kts | 299° |
| 2026-05-01 08:41 | 50.93594 | -0.47148 | 2084 ft | 128 kts | 299° |
| 2026-05-01 08:41 | 50.94069 | -0.48338 | 2084 ft | 128 kts | 299° |
| 2026-05-01 08:42 | 50.94547 | -0.49540 | 2083 ft | 129 kts | 299° |
| 2026-05-01 08:42 | 50.95026 | -0.50748 | 2084 ft | 129 kts | 298° |
| 2026-05-01 08:42 | 50.95507 | -0.51952 | 2084 ft | 129 kts | 298° |
| 2026-05-01 08:42 | 50.95984 | -0.53136 | 2084 ft | 129 kts | 298° |
| 2026-05-01 08:43 | 50.96471 | -0.54331 | 2084 ft | 128 kts | 298° |
| 2026-05-01 08:43 | 50.96957 | -0.55520 | 2086 ft | 128 kts | 299° |
| 2026-05-01 08:43 | 50.97436 | -0.56715 | 2088 ft | 128 kts | 295° |
| 2026-05-01 08:43 | 50.97849 | -0.57958 | 2089 ft | 127 kts | 292° |
| 2026-05-01 08:44 | 50.98255 | -0.59202 | 2088 ft | 127 kts | 292° |
| 2026-05-01 08:44 | 50.98659 | -0.60441 | 2083 ft | 127 kts | 293° |
| 2026-05-01 08:44 | 50.99063 | -0.61686 | 2084 ft | 127 kts | 293° |
| 2026-05-01 08:44 | 50.99468 | -0.62935 | 2081 ft | 127 kts | 292° |
| 2026-05-01 08:45 | 50.99878 | -0.64173 | 2082 ft | 128 kts | 296° |
| 2026-05-01 08:45 | 51.00352 | -0.65365 | 2076 ft | 128 kts | 297° |
| 2026-05-01 08:45 | 51.00833 | -0.66560 | 2078 ft | 128 kts | 298° |
| 2026-05-01 08:45 | 51.01314 | -0.67759 | 2076 ft | 128 kts | 298° |
| 2026-05-01 08:46 | 51.01788 | -0.68952 | 2075 ft | 128 kts | 298° |
| 2026-05-01 08:46 | 51.02266 | -0.70150 | 2071 ft | 128 kts | 297° |
| 2026-05-01 08:46 | 51.02714 | -0.71364 | 2073 ft | 127 kts | 291° |
| 2026-05-01 08:46 | 51.03108 | -0.72621 | 2076 ft | 127 kts | 291° |
| 2026-05-01 08:47 | 51.03499 | -0.73872 | 2074 ft | 127 kts | 291° |
| 2026-05-01 08:47 | 51.03884 | -0.75146 | 2074 ft | 127 kts | 289° |
| 2026-05-01 08:47 | 51.04252 | -0.76408 | 2076 ft | 126 kts | 288° |
| 2026-05-01 08:47 | 51.04622 | -0.77686 | 2075 ft | 127 kts | 289° |
| 2026-05-01 08:48 | 51.04990 | -0.78946 | 2078 ft | 127 kts | 289° |
| 2026-05-01 08:48 | 51.05362 | -0.80219 | 2082 ft | 128 kts | 289° |
| 2026-05-01 08:48 | 51.05731 | -0.81502 | 2072 ft | 128 kts | 289° |
| 2026-05-01 08:48 | 51.06096 | -0.82786 | 2073 ft | 127 kts | 289° |
| 2026-05-01 08:49 | 51.06457 | -0.84062 | 2076 ft | 127 kts | 289° |
| 2026-05-01 08:49 | 51.06822 | -0.85352 | 2078 ft | 127 kts | 289° |
| 2026-05-01 08:49 | 51.07181 | -0.86630 | 2076 ft | 127 kts | 289° |
| 2026-05-01 08:49 | 51.07537 | -0.87905 | 2076 ft | 127 kts | 289° |
| 2026-05-01 08:50 | 51.07907 | -0.89179 | 2075 ft | 126 kts | 290° |
| 2026-05-01 08:50 | 51.08281 | -0.90451 | 2076 ft | 127 kts | 290° |
| 2026-05-01 08:50 | 51.08657 | -0.91717 | 2071 ft | 127 kts | 290° |
| 2026-05-01 08:50 | 51.09036 | -0.92987 | 2075 ft | 127 kts | 290° |
| 2026-05-01 08:51 | 51.09413 | -0.94242 | 2074 ft | 127 kts | 290° |
| 2026-05-01 08:51 | 51.09795 | -0.95513 | 2066 ft | 127 kts | 290° |
| 2026-05-01 08:51 | 51.10178 | -0.96783 | 2077 ft | 127 kts | 290° |
| 2026-05-01 08:51 | 51.10558 | -0.98057 | 2073 ft | 127 kts | 290° |
| 2026-05-01 08:52 | 51.10937 | -0.99333 | 2072 ft | 127 kts | 290° |
| 2026-05-01 08:52 | 51.11315 | -1.00612 | 2071 ft | 127 kts | 290° |
| 2026-05-01 08:52 | 51.11691 | -1.01883 | 2069 ft | 127 kts | 290° |
| 2026-05-01 08:52 | 51.12069 | -1.03169 | 1995 ft | 130 kts | 290° |
| 2026-05-01 08:53 | 51.12452 | -1.04482 | 1847 ft | 132 kts | 290° |
| 2026-05-01 08:53 | 51.12838 | -1.05819 | 1696 ft | 133 kts | 290° |
| 2026-05-01 08:53 | 51.13221 | -1.07159 | 1545 ft | 134 kts | 290° |
| 2026-05-01 08:53 | 51.13596 | -1.08492 | 1519 ft | 126 kts | 290° |
| 2026-05-01 08:54 | 51.13943 | -1.09720 | 1520 ft | 116 kts | 290° |
| 2026-05-01 08:54 | 51.14267 | -1.10850 | 1523 ft | 109 kts | 290° |
| 2026-05-01 08:54 | 51.14583 | -1.11937 | 1523 ft | 106 kts | 290° |
| 2026-05-01 08:54 | 51.14883 | -1.12938 | 1518 ft | 96 kts | 290° |
| 2026-05-01 08:55 | 51.15112 | -1.13684 | 1521 ft | 90 kts | 290° |
| 2026-05-01 08:55 | 51.15306 | -1.14311 | 1523 ft | 87 kts | 290° |
| 2026-05-01 08:55 | 51.15574 | -1.15186 | 1533 ft | 93 kts | 289° |
| 2026-05-01 08:55 | 51.15865 | -1.16167 | 1535 ft | 102 kts | 290° |
| 2026-05-01 08:56 | 51.16170 | -1.17219 | 1531 ft | 106 kts | 290° |
| 2026-05-01 08:56 | 51.16472 | -1.18271 | 1518 ft | 99 kts | 291° |
| 2026-05-01 08:56 | 51.16742 | -1.19187 | 1552 ft | 83 kts | 289° |
| 2026-05-01 08:56 | 51.16996 | -1.20040 | 1537 ft | 88 kts | 290° |
| 2026-05-01 08:57 | 51.17261 | -1.20933 | 1530 ft | 89 kts | 290° |
| 2026-05-01 08:57 | 51.17525 | -1.21823 | 1526 ft | 89 kts | 290° |
| 2026-05-01 08:57 | 51.17783 | -1.22688 | 1562 ft | 86 kts | 289° |
| 2026-05-01 08:57 | 51.18050 | -1.23577 | 1529 ft | 88 kts | 290° |
| 2026-05-01 08:58 | 51.18324 | -1.24398 | 1523 ft | 82 kts | 295° |
| 2026-05-01 08:58 | 51.18617 | -1.25168 | 1526 ft | 80 kts | 295° |
| 2026-05-01 08:58 | 51.18910 | -1.25926 | 1528 ft | 81 kts | 295° |
| 2026-05-01 08:58 | 51.19339 | -1.26544 | 1521 ft | 86 kts | 333° |
| 2026-05-01 08:59 | 51.19927 | -1.26661 | 1516 ft | 85 kts | 12° |
| 2026-05-01 08:59 | 51.20462 | -1.26320 | 1518 ft | 82 kts | 39° |
| 2026-05-01 08:59 | 51.20935 | -1.25764 | 1457 ft | 83 kts | 40° |
| 2026-05-01 08:59 | 51.21390 | -1.25240 | 1403 ft | 80 kts | 41° |
| 2026-05-01 09:00 | 51.21840 | -1.24706 | 1303 ft | 79 kts | 60° |
| 2026-05-01 09:00 | 51.21812 | -1.23941 | 1214 ft | 71 kts | 121° |
| 2026-05-01 09:00 | 51.21590 | -1.23255 | 1163 ft | 68 kts | 118° |
| 2026-05-01 09:00 | 51.21399 | -1.22571 | 1126 ft | 66 kts | 115° |
| 2026-05-01 09:01 | 51.21055 | -1.22083 | 1018 ft | 70 kts | 159° |
| 2026-05-01 09:01 | 51.20588 | -1.22242 | 829 ft | 74 kts | 195° |
| 2026-05-01 09:01 | 51.20156 | -1.22628 | 580 ft | 72 kts | 205° |
| 2026-05-01 09:01 | 51.19806 | -1.22950 | 532 ft | 42 kts | 213° |
| 2026-05-01 09:02 | 51.19638 | -1.23146 | 532 ft | 19 kts | 240° |
| 2026-05-01 09:02 | 51.19523 | -1.23259 | 532 ft | 23 kts | 226° |
| 2026-05-01 09:02 | 51.19516 | -1.23450 | 532 ft | 7 kts | 206° |
| 2026-05-01 09:02 | 51.19476 | -1.23461 | 532 ft | 3 kts | 102° |
| 2026-05-01 09:03 | 51.19476 | -1.23456 | 532 ft | 0 kts | 91° |